createdAt,value
2023-04-14T00:01:53.731Z,17.10
2023-04-14T00:04:20.904Z,17.40
2023-04-14T00:06:47.970Z,19.73
2023-04-14T00:09:15.446Z,15.93
2023-04-14T00:11:42.369Z,19.07
2023-04-14T00:14:09.536Z,15.87
2023-04-14T00:16:36.963Z,13.10
2023-04-14T00:19:04.038Z,16.73
2023-04-14T00:21:31.674Z,18.47
2023-04-14T00:23:58.601Z,17.57
2023-04-14T00:26:25.602Z,14.00
2023-04-14T00:28:52.583Z,15.80
2023-04-14T00:31:19.411Z,14.50
2023-04-14T00:33:46.253Z,17.20
2023-04-14T00:36:13.263Z,14.27
2023-04-14T00:38:40.350Z,15.03
2023-04-14T00:41:07.346Z,12.63
2023-04-14T00:43:34.154Z,16.37
2023-04-14T00:46:01.710Z,16.17
2023-04-14T00:48:29.597Z,14.73
2023-04-14T00:50:56.495Z,15.47
2023-04-14T00:53:23.960Z,10.40
2023-04-14T00:55:51.328Z,12.00
2023-04-14T00:58:18.251Z,11.83
2023-04-14T01:00:46.258Z,19.47
2023-04-14T01:03:13.678Z,10.97
2023-04-14T01:05:41.048Z,16.40
2023-04-14T01:08:07.960Z,10.90
2023-04-14T01:10:55.972Z,9.07
2023-04-14T01:13:36.962Z,10.43
2023-04-14T01:16:16.914Z,11.47
2023-04-14T01:18:46.528Z,12.13
2023-04-14T01:21:20.302Z,13.40
2023-04-14T01:24:21.837Z,10.23
2023-04-14T01:27:02.120Z,12.13
2023-04-14T01:29:56.328Z,10.47
2023-04-14T01:32:25.758Z,9.27
2023-04-14T01:35:20.196Z,11.33
2023-04-14T01:37:59.048Z,13.03
2023-04-14T01:40:27.965Z,11.00
2023-04-14T01:43:02.947Z,11.60
2023-04-14T01:45:39.081Z,19.30
2023-04-14T01:48:07.880Z,18.30
2023-04-14T01:50:37.374Z,14.93
2023-04-14T01:53:07.240Z,12.53
2023-04-14T01:55:37.533Z,13.03
2023-04-14T01:58:06.819Z,13.53
2023-04-14T02:00:36.604Z,16.77
2023-04-14T02:03:05.927Z,13.47
2023-04-14T02:05:37.031Z,11.80
2023-04-14T02:08:06.370Z,15.37
2023-04-14T02:10:34.139Z,18.43
2023-04-14T02:13:03.177Z,20.10
2023-04-14T02:15:31.996Z,11.90
2023-04-14T02:18:00.456Z,12.50
2023-04-14T02:20:29.409Z,11.40
2023-04-14T02:22:56.441Z,15.17
2023-04-14T02:25:25.763Z,13.70
2023-04-14T02:28:00.485Z,16.97
2023-04-14T02:30:38.207Z,14.73
2023-04-14T02:33:09.645Z,13.23
2023-04-14T02:35:46.216Z,14.13
2023-04-14T02:38:21.681Z,17.00
2023-04-14T02:40:49.141Z,16.27
2023-04-14T02:43:24.924Z,18.07
2023-04-14T02:45:54.011Z,15.07
2023-04-14T02:48:27.113Z,13.27
2023-04-14T02:50:55.656Z,15.63
2023-04-14T02:53:25.044Z,14.43
2023-04-14T02:55:53.462Z,13.80
2023-04-14T02:58:21.086Z,13.93
2023-04-14T03:00:50.001Z,12.63
2023-04-14T03:03:18.864Z,16.80
2023-04-14T03:05:47.704Z,16.20
2023-04-14T03:08:16.682Z,15.63
2023-04-14T03:10:47.051Z,14.43
2023-04-14T03:13:15.530Z,17.30
2023-04-14T03:15:43.371Z,15.57
2023-04-14T03:18:12.467Z,12.77
2023-04-14T03:20:41.599Z,11.53
2023-04-14T03:23:12.562Z,14.20
2023-04-14T03:25:40.690Z,9.87
2023-04-14T03:28:13.745Z,20.47
2023-04-14T03:30:44.020Z,15.33
2023-04-14T03:33:14.491Z,14.13
2023-04-14T03:35:42.586Z,15.00
2023-04-14T03:38:11.129Z,12.97
2023-04-14T03:40:42.890Z,13.23
2023-04-14T03:43:12.373Z,12.40
2023-04-14T03:45:40.540Z,16.83
2023-04-14T03:48:12.626Z,16.53
2023-04-14T03:50:42.834Z,14.43
2023-04-14T03:53:12.707Z,13.33
2023-04-14T03:55:42.227Z,14.57
2023-04-14T03:58:11.082Z,17.07
2023-04-14T04:00:38.957Z,17.47
2023-04-14T04:03:09.044Z,14.77
2023-04-14T04:05:40.714Z,16.60
2023-04-14T04:08:08.771Z,15.57
2023-04-14T04:10:36.555Z,14.27
2023-04-14T04:13:06.950Z,13.77
2023-04-14T04:15:34.272Z,13.30
2023-04-14T04:18:03.372Z,13.27
2023-04-14T04:20:32.944Z,13.33
2023-04-14T04:23:02.787Z,12.63
2023-04-14T04:25:32.275Z,11.73
2023-04-14T04:28:01.249Z,19.90
2023-04-14T04:30:29.604Z,16.67
2023-04-14T04:32:56.817Z,17.10
2023-04-14T04:35:24.996Z,14.60
2023-04-14T04:37:53.537Z,16.27
2023-04-14T04:40:20.576Z,16.20
2023-04-14T04:42:47.334Z,13.60
2023-04-14T04:45:30.956Z,15.37
2023-04-14T04:47:57.795Z,18.63
2023-04-14T04:50:24.565Z,17.07
2023-04-14T04:52:51.520Z,19.80
2023-04-14T04:55:18.239Z,14.13
2023-04-14T04:57:44.965Z,15.23
2023-04-14T05:00:12.346Z,13.23
2023-04-14T05:02:39.327Z,16.27
2023-04-14T05:05:08.689Z,14.43
2023-04-14T05:07:35.974Z,15.23
2023-04-14T05:10:04.081Z,14.27
2023-04-14T05:12:30.830Z,12.93
2023-04-14T05:14:57.828Z,15.60
2023-04-14T05:17:25.022Z,14.07
2023-04-14T05:19:51.847Z,10.73
2023-04-14T05:22:18.814Z,12.47
2023-04-14T05:24:52.000Z,11.20
2023-04-14T05:27:18.804Z,12.17
2023-04-14T05:29:45.836Z,11.53
2023-04-14T05:32:14.592Z,14.63
2023-04-14T05:34:41.994Z,12.83
2023-04-14T05:37:09.006Z,8.93
2023-04-14T05:39:35.965Z,9.73
2023-04-14T05:42:03.199Z,12.77
2023-04-14T05:44:33.164Z,11.87
2023-04-14T05:47:00.412Z,11.47
2023-04-14T05:49:27.405Z,14.53
2023-04-14T05:51:57.782Z,17.07
2023-04-14T05:54:24.529Z,9.73
2023-04-14T05:56:51.375Z,11.00
2023-04-14T05:59:18.378Z,13.77
2023-04-14T06:01:48.359Z,9.60
2023-04-14T06:04:15.801Z,10.03
2023-04-14T06:06:42.814Z,10.47
2023-04-14T06:09:09.753Z,8.75
2023-04-14T06:11:37.915Z,8.50
2023-04-14T06:14:07.867Z,8.90
2023-04-14T06:16:34.738Z,8.55
2023-04-14T06:19:01.993Z,8.40
2023-04-14T06:21:29.476Z,9.65
2023-04-14T06:23:56.531Z,9.13
2023-04-14T06:26:23.567Z,11.15
2023-04-14T06:28:50.652Z,10.63
2023-04-14T06:31:17.545Z,10.30
2023-04-14T06:33:47.508Z,10.25
2023-04-14T06:36:17.085Z,9.82
2023-04-14T06:38:44.100Z,8.73
2023-04-14T06:41:10.860Z,7.07
2023-04-14T06:43:38.230Z,7.60
2023-04-14T06:46:06.103Z,6.22
2023-04-14T06:48:33.330Z,12.35
2023-04-14T06:51:00.743Z,19.77
2023-04-14T06:53:27.680Z,28.98
2023-04-14T06:56:00.821Z,11.70
2023-04-14T06:58:31.048Z,7.88
2023-04-14T07:00:59.380Z,9.57
2023-04-14T07:03:27.673Z,10.10
2023-04-14T07:05:54.809Z,12.13
2023-04-14T07:08:22.063Z,9.50
2023-04-14T07:10:50.115Z,9.88
2023-04-14T07:13:17.091Z,9.65
2023-04-14T07:15:47.773Z,7.00
2023-04-14T07:18:15.380Z,10.38
2023-04-14T07:20:42.574Z,10.18
2023-04-14T07:23:09.614Z,9.35
2023-04-14T07:25:36.938Z,9.50
2023-04-14T07:28:05.169Z,8.13
2023-04-14T07:30:32.486Z,9.20
2023-04-14T07:33:01.705Z,9.95
2023-04-14T07:35:29.400Z,11.50
2023-04-14T07:37:56.220Z,8.77
2023-04-14T07:40:23.267Z,10.53
2023-04-14T07:42:50.028Z,12.97
2023-04-14T07:45:17.529Z,12.77
2023-04-14T07:47:44.909Z,12.77
2023-04-14T07:50:12.270Z,14.03
2023-04-14T07:52:41.711Z,7.07
2023-04-14T07:55:08.769Z,6.67
2023-04-14T07:57:36.298Z,7.30
2023-04-14T08:00:04.367Z,10.23
2023-04-14T08:02:32.021Z,10.30
2023-04-14T08:04:58.881Z,7.70
2023-04-14T08:07:28.644Z,9.23
2023-04-14T08:09:55.632Z,10.97
2023-04-14T08:12:22.766Z,11.70
2023-04-14T08:14:49.797Z,8.70
2023-04-14T08:17:17.244Z,10.57
2023-04-14T08:19:44.321Z,10.93
2023-04-14T08:22:11.013Z,11.00
2023-04-14T08:24:38.062Z,10.07
2023-04-14T08:27:04.944Z,12.23
2023-04-14T08:29:31.978Z,11.30
2023-04-14T08:31:59.370Z,11.20
2023-04-14T08:34:28.655Z,9.77
2023-04-14T08:36:56.515Z,9.07
2023-04-14T08:39:23.789Z,9.10
2023-04-14T08:41:53.972Z,8.33
2023-04-14T08:44:22.097Z,10.97
2023-04-14T08:46:55.195Z,12.13
2023-04-14T08:49:51.421Z,9.47
2023-04-14T08:52:23.946Z,12.23
2023-04-14T08:54:51.392Z,11.53
2023-04-14T08:57:20.544Z,8.43
2023-04-14T08:59:48.256Z,10.47
2023-04-14T09:02:16.192Z,10.10
2023-04-14T09:04:43.636Z,9.70
2023-04-14T09:07:12.801Z,11.00
2023-04-14T09:09:39.912Z,11.43
2023-04-14T09:12:08.537Z,9.53
2023-04-14T09:14:37.387Z,9.50
2023-04-14T09:17:04.821Z,10.43
2023-04-14T09:19:33.157Z,8.97
2023-04-14T09:22:00.555Z,10.73
2023-04-14T09:24:34.570Z,8.20
2023-04-14T09:27:05.693Z,10.20
2023-04-14T09:29:33.563Z,9.17
2023-04-14T09:32:00.901Z,11.13
2023-04-14T09:34:28.366Z,8.17
2023-04-14T09:37:09.669Z,11.43
2023-04-14T09:39:47.790Z,9.10
2023-04-14T09:42:14.637Z,8.43
2023-04-14T09:45:05.208Z,11.07
2023-04-14T09:47:32.398Z,11.07
2023-04-14T09:50:06.504Z,10.50
2023-04-14T09:52:39.056Z,11.97
2023-04-14T09:55:08.781Z,10.80
2023-04-14T09:57:38.661Z,9.87
2023-04-14T10:00:20.834Z,9.33
2023-04-14T10:02:55.772Z,13.70
2023-04-14T10:05:33.012Z,9.00
2023-04-14T10:08:05.811Z,6.07
2023-04-14T10:10:32.897Z,8.13
2023-04-14T10:13:03.467Z,8.87
2023-04-14T10:15:31.386Z,7.90
2023-04-14T10:17:58.783Z,7.03
2023-04-14T10:20:26.981Z,9.60
2023-04-14T10:22:56.520Z,10.17
2023-04-14T10:25:25.123Z,10.07
2023-04-14T10:27:52.618Z,11.50
2023-04-14T10:30:19.887Z,7.55
2023-04-14T10:32:48.155Z,9.02
2023-04-14T10:35:18.465Z,7.90
2023-04-14T10:37:55.364Z,8.48
2023-04-14T10:40:23.273Z,8.60
2023-04-14T10:42:57.710Z,15.40
2023-04-14T10:45:24.821Z,7.50
2023-04-14T10:47:51.907Z,6.70
2023-04-14T10:50:24.325Z,5.80
2023-04-14T10:52:56.135Z,9.40
2023-04-14T10:55:28.145Z,9.48
2023-04-14T10:58:09.370Z,11.45
2023-04-14T11:00:39.647Z,10.05
2023-04-14T11:03:11.119Z,6.57
2023-04-14T11:05:44.251Z,8.40
2023-04-14T11:08:16.425Z,7.18
2023-04-14T11:10:51.279Z,6.70
2023-04-14T11:13:19.402Z,7.07
2023-04-14T11:16:01.564Z,6.45
2023-04-14T11:18:37.913Z,8.40
2023-04-14T11:21:10.857Z,7.93
2023-04-14T11:23:41.217Z,6.70
2023-04-14T11:26:12.734Z,7.43
2023-04-14T11:28:42.777Z,7.57
2023-04-14T11:31:12.779Z,6.37
2023-04-14T11:33:45.082Z,7.63
2023-04-14T11:36:13.060Z,7.47
2023-04-14T11:38:46.292Z,7.43
2023-04-14T11:41:19.208Z,8.23
2023-04-14T11:43:49.546Z,8.43
2023-04-14T11:46:20.674Z,6.67
2023-04-14T11:48:47.753Z,7.90
2023-04-14T11:51:15.481Z,5.30
2023-04-14T11:53:43.254Z,8.97
2023-04-14T11:56:14.436Z,8.17
2023-04-14T11:58:41.639Z,8.07
2023-04-14T12:01:16.240Z,7.67
2023-04-14T12:03:45.589Z,7.67
2023-04-14T12:06:13.089Z,6.67
2023-04-14T12:08:40.109Z,8.37
2023-04-14T12:11:15.196Z,9.50
2023-04-14T12:13:43.778Z,11.93
2023-04-14T12:16:11.969Z,8.27
2023-04-14T12:18:39.758Z,7.77
2023-04-14T12:21:09.714Z,16.47
2023-04-14T12:23:40.221Z,6.83
2023-04-14T12:26:14.390Z,7.77
2023-04-14T12:28:42.360Z,6.43
2023-04-14T12:31:10.073Z,6.33
2023-04-14T12:33:40.059Z,6.43
2023-04-14T12:36:13.377Z,6.73
2023-04-14T12:38:40.366Z,7.03
2023-04-14T12:41:07.376Z,7.70
2023-04-14T12:43:38.826Z,4.93
2023-04-14T12:46:07.875Z,8.27
2023-04-14T12:48:58.658Z,5.93
2023-04-14T12:51:25.936Z,5.83
2023-04-14T12:54:07.385Z,6.63
2023-04-14T12:56:34.452Z,5.97
2023-04-14T12:59:04.540Z,6.03
2023-04-14T13:01:31.678Z,6.37
2023-04-14T13:03:58.649Z,5.57
2023-04-14T13:06:26.131Z,6.50
2023-04-14T13:08:54.324Z,8.27
2023-04-14T13:11:23.474Z,9.13
2023-04-14T13:13:53.839Z,5.50
2023-04-14T13:16:21.542Z,5.77
2023-04-14T13:18:49.389Z,6.20
2023-04-14T13:21:16.848Z,5.30
2023-04-14T13:23:44.208Z,8.20
2023-04-14T13:26:12.137Z,4.43
2023-04-14T13:28:39.548Z,6.33
2023-04-14T13:31:06.967Z,6.57
2023-04-14T13:33:34.124Z,7.87
2023-04-14T13:36:04.456Z,8.57
2023-04-14T13:38:32.043Z,6.90
2023-04-14T13:40:59.136Z,5.10
2023-04-14T13:43:26.476Z,7.47
2023-04-14T13:45:56.966Z,8.20
2023-04-14T13:48:24.374Z,4.37
2023-04-14T13:50:51.905Z,3.50
2023-04-14T13:53:18.697Z,5.57
2023-04-14T13:55:46.317Z,5.03
2023-04-14T13:58:13.062Z,5.70
2023-04-14T14:00:40.587Z,5.77
2023-04-14T14:03:07.667Z,6.90
2023-04-14T14:05:34.574Z,5.37
2023-04-14T14:08:01.361Z,4.60
2023-04-14T14:10:28.929Z,5.10
2023-04-14T14:12:56.059Z,7.17
2023-04-14T14:15:23.628Z,4.60
2023-04-14T14:17:53.441Z,5.27
2023-04-14T14:20:20.422Z,5.10
2023-04-14T14:22:47.903Z,4.10
2023-04-14T14:25:20.587Z,4.97
2023-04-14T14:27:50.448Z,3.37
2023-04-14T14:30:17.410Z,5.63
2023-04-14T14:32:44.587Z,3.40
2023-04-14T14:35:11.734Z,3.70
2023-04-14T14:37:38.953Z,5.17
2023-04-14T14:40:06.538Z,5.13
2023-04-14T14:42:33.970Z,5.10
2023-04-14T14:45:01.683Z,5.37
2023-04-14T14:47:29.228Z,5.33
2023-04-14T14:50:02.691Z,4.87
2023-04-14T14:52:32.287Z,5.30
2023-04-14T14:54:59.266Z,5.23
2023-04-14T14:57:38.005Z,4.73
2023-04-14T15:00:08.057Z,4.33
2023-04-14T15:02:35.449Z,4.50
2023-04-14T15:05:02.809Z,4.33
2023-04-14T15:07:29.685Z,6.93
2023-04-14T15:09:56.692Z,4.83
2023-04-14T15:12:23.732Z,2.93
2023-04-14T15:14:50.963Z,6.27
2023-04-14T15:17:18.437Z,4.50
2023-04-14T15:19:45.467Z,4.37
2023-04-14T15:22:12.288Z,4.63
2023-04-14T15:24:39.628Z,5.17
2023-04-14T15:27:06.706Z,6.07
2023-04-14T15:29:33.841Z,5.57
2023-04-14T15:32:01.427Z,4.80
2023-04-14T15:34:28.424Z,4.13
2023-04-14T15:36:55.422Z,6.83
2023-04-14T15:39:22.517Z,4.77
2023-04-14T15:41:50.448Z,4.60
2023-04-14T15:44:17.681Z,4.27
2023-04-14T15:46:45.434Z,4.40
2023-04-14T15:49:12.521Z,4.40
2023-04-14T15:51:39.286Z,4.47
2023-04-14T15:54:06.336Z,4.53
2023-04-14T15:56:33.135Z,3.37
2023-04-14T15:58:59.865Z,4.83
2023-04-14T16:01:27.607Z,3.43
2023-04-14T16:03:54.936Z,3.97
2023-04-14T16:06:25.165Z,4.60
2023-04-14T16:08:52.766Z,3.17
2023-04-14T16:11:19.774Z,4.60
2023-04-14T16:13:47.504Z,6.43
2023-04-14T16:16:16.249Z,5.03
2023-04-14T16:18:43.452Z,3.97
2023-04-14T16:21:10.878Z,4.47
2023-04-14T16:23:38.033Z,3.53
2023-04-14T16:26:08.449Z,3.87
2023-04-14T16:28:35.760Z,4.57
2023-04-14T16:31:02.926Z,5.73
2023-04-14T16:33:31.635Z,4.43
2023-04-14T16:36:07.560Z,5.07
2023-04-14T16:38:36.779Z,3.77
2023-04-14T16:41:07.469Z,3.97
2023-04-14T16:43:34.468Z,2.90
2023-04-14T16:46:07.077Z,3.43
2023-04-14T16:48:37.623Z,2.73
2023-04-14T16:51:08.699Z,4.93
2023-04-14T16:53:36.895Z,3.50
2023-04-14T16:56:08.731Z,6.03
2023-04-14T16:58:36.983Z,4.90
2023-04-14T17:01:04.913Z,3.63
2023-04-14T17:03:32.450Z,4.07
2023-04-14T17:05:59.310Z,3.63
2023-04-14T17:08:26.722Z,2.90
2023-04-14T17:10:54.189Z,4.17
2023-04-14T17:13:21.532Z,3.13
2023-04-14T17:15:58.766Z,4.23
2023-04-14T17:18:35.212Z,4.97
2023-04-14T17:21:02.180Z,3.27
2023-04-14T17:23:29.019Z,2.70
2023-04-14T17:25:57.245Z,2.97
2023-04-14T17:28:24.379Z,3.53
2023-04-14T17:30:51.316Z,3.77
2023-04-14T17:33:20.176Z,3.77
2023-04-14T17:35:47.115Z,3.30
2023-04-14T17:38:14.006Z,4.73
2023-04-14T17:40:40.925Z,4.77
2023-04-14T17:43:08.043Z,3.17
2023-04-14T17:45:35.409Z,4.83
2023-04-14T17:48:02.471Z,3.40
2023-04-14T17:50:29.875Z,3.73
2023-04-14T17:52:58.027Z,4.17
2023-04-14T17:55:25.130Z,4.10
2023-04-14T17:57:52.842Z,5.57
2023-04-14T18:00:20.156Z,11.63
2023-04-14T18:02:47.629Z,5.60
2023-04-14T18:05:15.380Z,5.97
2023-04-14T18:07:42.349Z,6.33
2023-04-14T18:10:09.747Z,5.50
2023-04-14T18:12:36.790Z,5.60
2023-04-14T18:15:05.071Z,5.50
2023-04-14T18:17:32.438Z,6.73
2023-04-14T18:19:59.420Z,4.37
2023-04-14T18:22:28.847Z,5.43
2023-04-14T18:24:55.818Z,4.97
2023-04-14T18:29:54.114Z,6.90
2023-04-14T18:32:22.796Z,7.43
2023-04-14T18:34:49.576Z,7.03
2023-04-14T18:37:17.035Z,6.13
2023-04-14T18:39:45.046Z,8.53
2023-04-14T18:42:12.075Z,9.73
2023-04-14T18:44:38.829Z,9.17
2023-04-14T18:47:05.999Z,7.23
2023-04-14T18:49:32.861Z,4.93
2023-04-14T18:51:59.863Z,5.77
2023-04-14T18:54:27.157Z,7.60
2023-04-14T18:56:53.968Z,7.70
2023-04-14T18:59:21.545Z,7.53
2023-04-14T19:01:48.628Z,11.50
2023-04-14T19:04:15.678Z,7.63
2023-04-14T19:06:42.888Z,7.20
2023-04-14T19:09:09.772Z,8.83
2023-04-14T19:11:36.955Z,6.27
2023-04-14T19:14:04.735Z,10.40
2023-04-14T19:16:33.055Z,8.07
2023-04-14T19:19:01.424Z,9.43
2023-04-14T19:21:28.709Z,13.67
2023-04-14T19:23:57.127Z,9.20
2023-04-14T19:26:24.465Z,10.13
2023-04-14T19:28:52.974Z,7.50
2023-04-14T19:31:21.768Z,9.40
2023-04-14T19:33:49.373Z,9.67
2023-04-14T19:36:17.282Z,8.10
2023-04-14T19:38:44.644Z,5.17
2023-04-14T19:41:12.141Z,7.17
2023-04-14T19:43:39.829Z,7.83
2023-04-14T19:46:08.312Z,6.27
2023-04-14T19:48:35.371Z,9.03
2023-04-14T19:51:02.609Z,8.93
2023-04-14T19:53:29.919Z,6.20
2023-04-14T19:55:58.333Z,5.93
2023-04-14T19:58:26.899Z,8.27
2023-04-14T20:00:57.510Z,6.90
2023-04-14T20:03:25.627Z,5.43
2023-04-14T20:05:57.295Z,7.33
2023-04-14T20:08:25.602Z,5.17
2023-04-14T20:10:54.526Z,6.07
2023-04-14T20:13:23.753Z,6.70
2023-04-14T20:15:55.316Z,6.43
2023-04-14T20:18:26.524Z,6.37
2023-04-14T20:20:55.465Z,6.30
2023-04-14T20:23:22.992Z,6.67
2023-04-14T20:25:56.065Z,5.67
2023-04-14T20:28:27.029Z,8.30
2023-04-14T20:30:54.577Z,5.83
2023-04-14T20:33:28.749Z,6.47
2023-04-14T20:36:03.714Z,6.50
2023-04-14T20:38:37.722Z,8.40
2023-04-14T20:41:05.815Z,9.33
2023-04-14T20:43:34.315Z,8.87
2023-04-14T20:46:02.772Z,8.37
2023-04-14T20:48:30.721Z,8.40
2023-04-14T20:50:57.945Z,7.67
2023-04-14T20:53:27.301Z,6.33
2023-04-14T20:55:55.014Z,7.53
2023-04-14T20:58:21.991Z,7.17
2023-04-14T21:00:49.881Z,8.27
2023-04-14T21:03:17.249Z,7.63
2023-04-14T21:05:44.442Z,6.87
2023-04-14T21:08:12.831Z,5.77
2023-04-14T21:11:02.153Z,7.80
2023-04-14T21:15:24.841Z,9.03
2023-04-14T21:16:15.765Z,6.87
2023-04-14T21:18:42.615Z,7.77
2023-04-14T21:21:11.447Z,9.90
2023-04-14T21:23:38.357Z,6.87
2023-04-14T21:26:05.375Z,8.07
2023-04-14T21:28:32.660Z,7.23
2023-04-14T21:31:01.637Z,10.23
2023-04-14T21:33:29.026Z,7.27
2023-04-14T21:35:56.321Z,8.43
2023-04-14T21:38:24.038Z,12.07
2023-04-14T21:40:51.757Z,8.03
2023-04-14T21:43:18.954Z,6.97
2023-04-14T21:45:45.812Z,6.47
2023-04-14T21:48:12.949Z,6.20
2023-04-14T21:50:39.784Z,6.90
2023-04-14T21:53:06.755Z,8.60
2023-04-14T21:55:33.833Z,8.70
2023-04-14T21:58:01.531Z,8.53
2023-04-14T22:00:28.511Z,9.63
2023-04-14T22:02:55.900Z,7.77
2023-04-14T22:05:23.619Z,7.43
2023-04-14T22:07:50.489Z,9.63
2023-04-14T22:10:17.340Z,9.43
2023-04-14T22:12:48.993Z,10.30
2023-04-14T22:15:22.125Z,10.27
2023-04-14T22:17:49.409Z,8.53
2023-04-14T22:20:16.535Z,9.77
2023-04-14T22:22:43.476Z,11.10
2023-04-14T22:25:11.565Z,8.27
2023-04-14T22:27:38.398Z,11.07
2023-04-14T22:30:05.895Z,9.53
2023-04-14T22:32:32.730Z,8.87
2023-04-14T22:34:59.713Z,8.50
2023-04-14T22:37:26.707Z,9.67
2023-04-14T22:39:53.488Z,7.50
2023-04-14T22:42:20.398Z,7.20
2023-04-14T22:44:49.781Z,7.90
2023-04-14T22:47:16.846Z,6.87
2023-04-14T22:49:43.692Z,9.80
2023-04-14T22:52:10.625Z,9.07
2023-04-14T22:54:38.079Z,9.20
2023-04-14T22:57:05.164Z,9.00
2023-04-14T22:59:32.134Z,11.03
2023-04-14T23:02:02.810Z,8.83
2023-04-14T23:04:31.495Z,9.10
2023-04-14T23:06:58.442Z,9.97
2023-04-14T23:09:25.526Z,9.57
2023-04-14T23:11:52.628Z,9.60
2023-04-14T23:14:19.842Z,13.30
2023-04-14T23:16:47.226Z,12.73
2023-04-14T23:19:14.073Z,11.87
2023-04-14T23:21:41.252Z,10.10
2023-04-14T23:24:09.082Z,10.07
2023-04-14T23:26:36.274Z,8.90
2023-04-14T23:29:03.190Z,11.67
2023-04-14T23:31:30.956Z,10.97
2023-04-14T23:33:57.901Z,9.30
2023-04-14T23:36:25.388Z,12.07
2023-04-14T23:38:55.237Z,9.07
2023-04-14T23:41:21.967Z,8.20
2023-04-14T23:43:49.632Z,11.60
2023-04-14T23:46:17.183Z,11.93
2023-04-14T23:48:49.670Z,12.20
2023-04-14T23:51:22.204Z,8.77
2023-04-14T23:53:49.471Z,11.57
2023-04-14T23:56:19.315Z,12.40
2023-04-14T23:58:48.224Z,9.90
